EZY8409 EGKK-LFPG
Flight info
| Callsign | EZY8409 |
|---|---|
| Flight time | 0h 39m |
| Altitude | 23000 |
| Route | SFD M605 HARDY/N0373F250 UM605 BIBAX |
| Aircraft | A320/M-SDE3FGHIRWY/LB1 |
Departure
| Time | 2026-05-08 12:27 |
|---|---|
| Airport | London Gatwick Airport (EGKK) |
Arrival
| Time | 2026-05-08 13:06 |
|---|---|
| Airport | Charles de Gaulle International Airport (LFPG) |
| Time | Latitude | Longitude | Altitude | Speed | Heading |
|---|---|---|---|---|---|
| 2026-05-08 11:29 | 51.15752 | -0.16842 | 204 ft | 0 kts | 9° |
| 2026-05-08 11:32 | 51.15737 | -0.16944 | 212 ft | 0 kts | 31° |
| 2026-05-08 11:33 | 51.15823 | -0.16942 | 204 ft | 0 kts | 88° |
| 2026-05-08 12:04 | 51.15823 | -0.16950 | 215 ft | 3 kts | 88° |
| 2026-05-08 12:04 | 51.15823 | -0.16992 | 210 ft | 4 kts | 88° |
| 2026-05-08 12:04 | 51.15822 | -0.17028 | 213 ft | 3 kts | 88° |
| 2026-05-08 12:04 | 51.15817 | -0.17065 | 212 ft | 4 kts | 41° |
| 2026-05-08 12:05 | 51.15796 | -0.17076 | 209 ft | 3 kts | 347° |
| 2026-05-08 12:05 | 51.15777 | -0.17069 | 206 ft | 0 kts | 347° |
| 2026-05-08 12:13 | 51.15778 | -0.17070 | 213 ft | 1 kts | 347° |
| 2026-05-08 12:13 | 51.15799 | -0.17091 | 214 ft | 4 kts | 316° |
| 2026-05-08 12:14 | 51.15809 | -0.17127 | 205 ft | 3 kts | 282° |
| 2026-05-08 12:14 | 51.15807 | -0.17168 | 204 ft | 5 kts | 261° |
| 2026-05-08 12:14 | 51.15800 | -0.17224 | 204 ft | 8 kts | 258° |
| 2026-05-08 12:14 | 51.15784 | -0.17343 | 204 ft | 11 kts | 257° |
| 2026-05-08 12:15 | 51.15767 | -0.17464 | 208 ft | 11 kts | 258° |
| 2026-05-08 12:15 | 51.15751 | -0.17583 | 209 ft | 12 kts | 257° |
| 2026-05-08 12:15 | 51.15734 | -0.17706 | 210 ft | 11 kts | 258° |
| 2026-05-08 12:15 | 51.15717 | -0.17826 | 208 ft | 11 kts | 257° |
| 2026-05-08 12:16 | 51.15701 | -0.17944 | 210 ft | 11 kts | 258° |
| 2026-05-08 12:16 | 51.15680 | -0.18094 | 204 ft | 22 kts | 257° |
| 2026-05-08 12:16 | 51.15648 | -0.18325 | 210 ft | 17 kts | 258° |
| 2026-05-08 12:16 | 51.15623 | -0.18509 | 207 ft | 16 kts | 257° |
| 2026-05-08 12:17 | 51.15600 | -0.18678 | 210 ft | 15 kts | 257° |
| 2026-05-08 12:17 | 51.15555 | -0.18816 | 210 ft | 14 kts | 199° |
| 2026-05-08 12:17 | 51.15455 | -0.18794 | 211 ft | 16 kts | 167° |
| 2026-05-08 12:17 | 51.15354 | -0.18758 | 204 ft | 13 kts | 167° |
| 2026-05-08 12:18 | 51.15297 | -0.18739 | 204 ft | 4 kts | 168° |
| 2026-05-08 12:18 | 51.15260 | -0.18726 | 213 ft | 9 kts | 168° |
| 2026-05-08 12:18 | 51.15181 | -0.18700 | 207 ft | 13 kts | 173° |
| 2026-05-08 12:18 | 51.15120 | -0.18799 | 207 ft | 14 kts | 255° |
| 2026-05-08 12:19 | 51.15101 | -0.18940 | 207 ft | 12 kts | 258° |
| 2026-05-08 12:19 | 51.15082 | -0.19080 | 215 ft | 15 kts | 257° |
| 2026-05-08 12:19 | 51.15054 | -0.19286 | 212 ft | 23 kts | 257° |
| 2026-05-08 12:19 | 51.15018 | -0.19547 | 209 ft | 25 kts | 257° |
| 2026-05-08 12:20 | 51.14978 | -0.19835 | 206 ft | 27 kts | 258° |
| 2026-05-08 12:20 | 51.14944 | -0.20098 | 203 ft | 23 kts | 263° |
| 2026-05-08 12:20 | 51.14907 | -0.20348 | 206 ft | 21 kts | 257° |
| 2026-05-08 12:20 | 51.14873 | -0.20595 | 208 ft | 24 kts | 258° |
| 2026-05-08 12:21 | 51.14835 | -0.20872 | 207 ft | 27 kts | 258° |
| 2026-05-08 12:21 | 51.14803 | -0.21105 | 208 ft | 15 kts | 257° |
| 2026-05-08 12:21 | 51.14772 | -0.21261 | 204 ft | 15 kts | 256° |
| 2026-05-08 12:21 | 51.14731 | -0.21394 | 211 ft | 13 kts | 202° |
| 2026-05-08 12:22 | 51.14718 | -0.21397 | 206 ft | 0 kts | 187° |
| 2026-05-08 12:22 | 51.14682 | -0.21386 | 213 ft | 16 kts | 155° |
| 2026-05-08 12:22 | 51.14613 | -0.21326 | 207 ft | 5 kts | 164° |
| 2026-05-08 12:23 | 51.14612 | -0.21326 | 207 ft | 0 kts | 164° |
| 2026-05-08 12:24 | 51.14598 | -0.21320 | 214 ft | 9 kts | 164° |
| 2026-05-08 12:24 | 51.14533 | -0.21249 | 208 ft | 14 kts | 123° |
| 2026-05-08 12:24 | 51.14531 | -0.21086 | 203 ft | 16 kts | 78° |
| 2026-05-08 12:25 | 51.14542 | -0.21009 | 214 ft | 0 kts | 77° |
| 2026-05-08 12:26 | 51.14556 | -0.20909 | 208 ft | 29 kts | 77° |
| 2026-05-08 12:26 | 51.14662 | -0.20134 | 207 ft | 110 kts | 78° |
| 2026-05-08 12:26 | 51.14866 | -0.18617 | 265 ft | 163 kts | 78° |
| 2026-05-08 12:27 | 51.15129 | -0.16881 | 1086 ft | 161 kts | 78° |
| 2026-05-08 12:27 | 51.15397 | -0.15095 | 1934 ft | 173 kts | 79° |
| 2026-05-08 12:27 | 51.15683 | -0.13082 | 2550 ft | 200 kts | 81° |
| 2026-05-08 12:27 | 51.15985 | -0.10828 | 3242 ft | 220 kts | 81° |
| 2026-05-08 12:28 | 51.16183 | -0.08344 | 4126 ft | 229 kts | 93° |
| 2026-05-08 12:28 | 51.15770 | -0.05948 | 5097 ft | 230 kts | 127° |
| 2026-05-08 12:28 | 51.14460 | -0.04371 | 5664 ft | 251 kts | 165° |
| 2026-05-08 12:28 | 51.12686 | -0.04041 | 5959 ft | 259 kts | 178° |
| 2026-05-08 12:29 | 51.10893 | -0.03780 | 6058 ft | 258 kts | 174° |
| 2026-05-08 12:29 | 51.09057 | -0.03311 | 6486 ft | 276 kts | 169° |
| 2026-05-08 12:29 | 51.07213 | -0.02594 | 7452 ft | 283 kts | 166° |
| 2026-05-08 12:29 | 51.05302 | -0.01718 | 8535 ft | 288 kts | 165° |
| 2026-05-08 12:30 | 51.03373 | -0.00779 | 9610 ft | 293 kts | 165° |
| 2026-05-08 12:30 | 51.01432 | 0.00180 | 10530 ft | 299 kts | 165° |
| 2026-05-08 12:30 | 50.99419 | 0.01168 | 11467 ft | 305 kts | 165° |
| 2026-05-08 12:30 | 50.97370 | 0.02162 | 12437 ft | 311 kts | 165° |
| 2026-05-08 12:31 | 50.95286 | 0.03160 | 13397 ft | 315 kts | 165° |
| 2026-05-08 12:31 | 50.93164 | 0.04165 | 14270 ft | 320 kts | 165° |
| 2026-05-08 12:31 | 50.91014 | 0.05178 | 15108 ft | 324 kts | 165° |
| 2026-05-08 12:31 | 50.88841 | 0.06201 | 15935 ft | 328 kts | 165° |
| 2026-05-08 12:32 | 50.86641 | 0.07238 | 16735 ft | 332 kts | 165° |
| 2026-05-08 12:32 | 50.84415 | 0.08283 | 17583 ft | 334 kts | 165° |
| 2026-05-08 12:32 | 50.82165 | 0.09332 | 18338 ft | 340 kts | 164° |
| 2026-05-08 12:32 | 50.79883 | 0.10397 | 19047 ft | 343 kts | 165° |
| 2026-05-08 12:33 | 50.77578 | 0.11497 | 19679 ft | 349 kts | 161° |
| 2026-05-08 12:33 | 50.75371 | 0.13190 | 20290 ft | 357 kts | 148° |
| 2026-05-08 12:33 | 50.73388 | 0.15604 | 20912 ft | 363 kts | 142° |
| 2026-05-08 12:33 | 50.71424 | 0.18150 | 21525 ft | 369 kts | 142° |
| 2026-05-08 12:34 | 50.70097 | 0.19863 | 21901 ft | 374 kts | 141° |
| 2026-05-08 12:34 | 50.68064 | 0.22471 | 22487 ft | 380 kts | 142° |
| 2026-05-08 12:34 | 50.65999 | 0.25108 | 22969 ft | 382 kts | 141° |
| 2026-05-08 12:34 | 50.63929 | 0.27749 | 23081 ft | 384 kts | 141° |
| 2026-05-08 12:35 | 50.61165 | 0.31263 | 23097 ft | 386 kts | 141° |
| 2026-05-08 12:35 | 50.59075 | 0.33917 | 23095 ft | 386 kts | 141° |
| 2026-05-08 12:35 | 50.57659 | 0.35716 | 23095 ft | 387 kts | 141° |
| 2026-05-08 12:35 | 50.54834 | 0.39304 | 23682 ft | 398 kts | 141° |
| 2026-05-08 12:36 | 50.53404 | 0.41119 | 24083 ft | 399 kts | 141° |
| 2026-05-08 12:36 | 50.51244 | 0.43858 | 24687 ft | 400 kts | 141° |
| 2026-05-08 12:36 | 50.49066 | 0.46615 | 24998 ft | 402 kts | 141° |
| 2026-05-08 12:36 | 50.46902 | 0.49350 | 25080 ft | 397 kts | 141° |
| 2026-05-08 12:37 | 50.44749 | 0.52069 | 25095 ft | 396 kts | 141° |
| 2026-05-08 12:37 | 50.42608 | 0.54772 | 25092 ft | 395 kts | 141° |
| 2026-05-08 12:37 | 50.40463 | 0.57479 | 25091 ft | 397 kts | 141° |
| 2026-05-08 12:37 | 50.38310 | 0.60192 | 25092 ft | 398 kts | 141° |
| 2026-05-08 12:38 | 50.36154 | 0.62911 | 25096 ft | 398 kts | 141° |
| 2026-05-08 12:38 | 50.33991 | 0.65634 | 25096 ft | 399 kts | 141° |
| 2026-05-08 12:38 | 50.31830 | 0.68351 | 25087 ft | 399 kts | 142° |
| 2026-05-08 12:38 | 50.29666 | 0.71061 | 25090 ft | 399 kts | 142° |
| 2026-05-08 12:39 | 50.27496 | 0.73770 | 25091 ft | 399 kts | 142° |
| 2026-05-08 12:39 | 50.25329 | 0.76475 | 25090 ft | 399 kts | 142° |
| 2026-05-08 12:39 | 50.23164 | 0.79181 | 25090 ft | 399 kts | 142° |
| 2026-05-08 12:39 | 50.20993 | 0.81889 | 25088 ft | 399 kts | 142° |
| 2026-05-08 12:40 | 50.18825 | 0.84590 | 25081 ft | 399 kts | 142° |
| 2026-05-08 12:40 | 50.16653 | 0.87292 | 25078 ft | 400 kts | 142° |
| 2026-05-08 12:40 | 50.14474 | 0.89999 | 25068 ft | 401 kts | 142° |
| 2026-05-08 12:40 | 50.12312 | 0.92675 | 25078 ft | 401 kts | 142° |
| 2026-05-08 12:41 | 50.10133 | 0.95371 | 25088 ft | 400 kts | 142° |
| 2026-05-08 12:41 | 50.07968 | 0.98054 | 24710 ft | 394 kts | 142° |
| 2026-05-08 12:41 | 50.05811 | 1.00579 | 24104 ft | 380 kts | 148° |
| 2026-05-08 12:41 | 50.03529 | 1.02481 | 23750 ft | 370 kts | 155° |
| 2026-05-08 12:42 | 50.01204 | 1.04220 | 23389 ft | 370 kts | 155° |
| 2026-05-08 12:42 | 49.98895 | 1.05956 | 23049 ft | 368 kts | 155° |
| 2026-05-08 12:42 | 49.96599 | 1.07682 | 22722 ft | 367 kts | 155° |
| 2026-05-08 12:42 | 49.94287 | 1.09424 | 22376 ft | 368 kts | 155° |
| 2026-05-08 12:43 | 49.91989 | 1.11163 | 22049 ft | 367 kts | 155° |
| 2026-05-08 12:43 | 49.89703 | 1.12888 | 21706 ft | 364 kts | 155° |
| 2026-05-08 12:43 | 49.87431 | 1.14593 | 21386 ft | 362 kts | 155° |
| 2026-05-08 12:43 | 49.85173 | 1.16281 | 21051 ft | 359 kts | 155° |
| 2026-05-08 12:44 | 49.82927 | 1.17960 | 20708 ft | 357 kts | 155° |
| 2026-05-08 12:44 | 49.80699 | 1.19622 | 20394 ft | 354 kts | 156° |
| 2026-05-08 12:44 | 49.78485 | 1.21270 | 20064 ft | 352 kts | 155° |
| 2026-05-08 12:44 | 49.76286 | 1.22912 | 19755 ft | 349 kts | 156° |
| 2026-05-08 12:45 | 49.74106 | 1.24538 | 19440 ft | 347 kts | 155° |
| 2026-05-08 12:45 | 49.71936 | 1.26153 | 19125 ft | 345 kts | 156° |
| 2026-05-08 12:45 | 49.69782 | 1.27750 | 18821 ft | 342 kts | 156° |
| 2026-05-08 12:45 | 49.67644 | 1.29335 | 18502 ft | 339 kts | 156° |
| 2026-05-08 12:46 | 49.65531 | 1.30904 | 18173 ft | 336 kts | 156° |
| 2026-05-08 12:46 | 49.63434 | 1.32461 | 17861 ft | 334 kts | 156° |
| 2026-05-08 12:46 | 49.61348 | 1.34008 | 17545 ft | 332 kts | 156° |
| 2026-05-08 12:46 | 49.59268 | 1.35550 | 17230 ft | 331 kts | 156° |
| 2026-05-08 12:47 | 49.57223 | 1.37062 | 16951 ft | 329 kts | 156° |
| 2026-05-08 12:47 | 49.55156 | 1.38587 | 16650 ft | 328 kts | 156° |
| 2026-05-08 12:47 | 49.53104 | 1.40097 | 16361 ft | 326 kts | 156° |
| 2026-05-08 12:47 | 49.51063 | 1.41601 | 16050 ft | 324 kts | 156° |
| 2026-05-08 12:48 | 49.49035 | 1.43097 | 15756 ft | 322 kts | 156° |
| 2026-05-08 12:48 | 49.47021 | 1.44582 | 15469 ft | 320 kts | 156° |
| 2026-05-08 12:48 | 49.45016 | 1.46058 | 15177 ft | 318 kts | 156° |
| 2026-05-08 12:48 | 49.43022 | 1.47523 | 14890 ft | 318 kts | 155° |
| 2026-05-08 12:49 | 49.41027 | 1.48986 | 14591 ft | 317 kts | 155° |
| 2026-05-08 12:49 | 49.39044 | 1.50438 | 14308 ft | 315 kts | 156° |
| 2026-05-08 12:49 | 49.37082 | 1.51877 | 14025 ft | 312 kts | 155° |
| 2026-05-08 12:49 | 49.35123 | 1.53316 | 13716 ft | 312 kts | 154° |
| 2026-05-08 12:50 | 49.33288 | 1.55085 | 13430 ft | 312 kts | 142° |
| 2026-05-08 12:50 | 49.31757 | 1.57420 | 13115 ft | 309 kts | 129° |
| 2026-05-08 12:50 | 49.30707 | 1.60248 | 12421 ft | 305 kts | 110° |
| 2026-05-08 12:50 | 49.30279 | 1.63415 | 11738 ft | 305 kts | 98° |
| 2026-05-08 12:51 | 49.29979 | 1.66616 | 11382 ft | 302 kts | 98° |
| 2026-05-08 12:51 | 49.29415 | 1.72892 | 11056 ft | 298 kts | 98° |
| 2026-05-08 12:51 | 49.29131 | 1.76086 | 11068 ft | 299 kts | 98° |
| 2026-05-08 12:52 | 49.28863 | 1.79213 | 11067 ft | 303 kts | 98° |
| 2026-05-08 12:52 | 49.28340 | 1.85668 | 11068 ft | 307 kts | 98° |
| 2026-05-08 12:52 | 49.28080 | 1.88909 | 11076 ft | 307 kts | 98° |
| 2026-05-08 12:53 | 49.27774 | 1.92135 | 11069 ft | 306 kts | 105° |
| 2026-05-08 12:53 | 49.26856 | 1.95026 | 11072 ft | 303 kts | 130° |
| 2026-05-08 12:53 | 49.25237 | 1.97027 | 11071 ft | 300 kts | 155° |
| 2026-05-08 12:53 | 49.23239 | 1.97794 | 10958 ft | 294 kts | 177° |
| 2026-05-08 12:54 | 49.21250 | 1.97822 | 10607 ft | 278 kts | 181° |
| 2026-05-08 12:54 | 49.19355 | 1.97752 | 10221 ft | 267 kts | 182° |
| 2026-05-08 12:54 | 49.17478 | 1.97662 | 9396 ft | 275 kts | 182° |
| 2026-05-08 12:54 | 49.15546 | 1.97559 | 8732 ft | 279 kts | 182° |
| 2026-05-08 12:55 | 49.13611 | 1.97455 | 7982 ft | 277 kts | 182° |
| 2026-05-08 12:55 | 49.11692 | 1.97351 | 7262 ft | 275 kts | 182° |
| 2026-05-08 12:55 | 49.09788 | 1.97248 | 6553 ft | 272 kts | 182° |
| 2026-05-08 12:55 | 49.07900 | 1.97141 | 5816 ft | 270 kts | 181° |
| 2026-05-08 12:56 | 49.06032 | 1.97009 | 5107 ft | 268 kts | 182° |
| 2026-05-08 12:56 | 49.04185 | 1.96843 | 4403 ft | 265 kts | 181° |
| 2026-05-08 12:56 | 49.02350 | 1.96644 | 4074 ft | 264 kts | 181° |
| 2026-05-08 12:56 | 49.00554 | 1.96835 | 4001 ft | 248 kts | 163° |
| 2026-05-08 12:57 | 48.99176 | 1.98036 | 4000 ft | 215 kts | 127° |
| 2026-05-08 12:57 | 48.98731 | 2.00001 | 4003 ft | 194 kts | 82° |
| 2026-05-08 12:57 | 48.99297 | 2.01826 | 4011 ft | 190 kts | 55° |
| 2026-05-08 12:57 | 48.99815 | 2.03533 | 3995 ft | 179 kts | 87° |
| 2026-05-08 12:58 | 48.99776 | 2.05438 | 4034 ft | 182 kts | 85° |
| 2026-05-08 12:58 | 48.99911 | 2.07362 | 4024 ft | 183 kts | 83° |
| 2026-05-08 12:58 | 49.00041 | 2.09274 | 4013 ft | 182 kts | 84° |
| 2026-05-08 12:58 | 49.00158 | 2.11182 | 4006 ft | 180 kts | 84° |
| 2026-05-08 12:59 | 49.00270 | 2.13087 | 4008 ft | 181 kts | 84° |
| 2026-05-08 12:59 | 49.00381 | 2.15008 | 4007 ft | 184 kts | 84° |
| 2026-05-08 12:59 | 49.00492 | 2.16935 | 4007 ft | 182 kts | 84° |
| 2026-05-08 12:59 | 49.00602 | 2.18858 | 4011 ft | 182 kts | 84° |
| 2026-05-08 13:00 | 49.00711 | 2.20774 | 4002 ft | 183 kts | 84° |
| 2026-05-08 13:00 | 49.00821 | 2.22707 | 4007 ft | 184 kts | 84° |
| 2026-05-08 13:00 | 49.00932 | 2.24662 | 3914 ft | 185 kts | 84° |
| 2026-05-08 13:00 | 49.01041 | 2.26599 | 3717 ft | 183 kts | 84° |
| 2026-05-08 13:01 | 49.01147 | 2.28480 | 3496 ft | 178 kts | 84° |
| 2026-05-08 13:01 | 49.01250 | 2.30324 | 3271 ft | 165 kts | 84° |
| 2026-05-08 13:01 | 49.01341 | 2.31956 | 3049 ft | 144 kts | 84° |
| 2026-05-08 13:01 | 49.01421 | 2.33401 | 2867 ft | 131 kts | 84° |
| 2026-05-08 13:02 | 49.01498 | 2.34766 | 2697 ft | 128 kts | 84° |
| 2026-05-08 13:02 | 49.01572 | 2.36102 | 2534 ft | 125 kts | 83° |
| 2026-05-08 13:02 | 49.01646 | 2.37435 | 2357 ft | 127 kts | 85° |
| 2026-05-08 13:02 | 49.01696 | 2.38776 | 2167 ft | 128 kts | 87° |
| 2026-05-08 13:03 | 49.01770 | 2.40124 | 2016 ft | 126 kts | 83° |
| 2026-05-08 13:03 | 49.01873 | 2.41430 | 1834 ft | 126 kts | 83° |
| 2026-05-08 13:03 | 49.01944 | 2.42746 | 1663 ft | 125 kts | 86° |
| 2026-05-08 13:03 | 49.01998 | 2.44060 | 1554 ft | 126 kts | 85° |
| 2026-05-08 13:04 | 49.02073 | 2.45398 | 1301 ft | 125 kts | 83° |
| 2026-05-08 13:04 | 49.02150 | 2.46712 | 1098 ft | 126 kts | 87° |
| 2026-05-08 13:04 | 49.02211 | 2.48047 | 933 ft | 126 kts | 84° |
| 2026-05-08 13:04 | 49.02316 | 2.49374 | 791 ft | 127 kts | 88° |
| 2026-05-08 13:05 | 49.02389 | 2.50696 | 635 ft | 124 kts | 89° |
| 2026-05-08 13:05 | 49.02444 | 2.52012 | 472 ft | 126 kts | 84° |
| 2026-05-08 13:05 | 49.02527 | 2.53310 | 381 ft | 114 kts | 87° |
| 2026-05-08 13:05 | 49.02574 | 2.54358 | 353 ft | 70 kts | 86° |
| 2026-05-08 13:06 | 49.02593 | 2.54779 | 358 ft | 43 kts | 86° |
| 2026-05-08 13:06 | 49.02591 | 2.55211 | 359 ft | 36 kts | 108° |
| 2026-05-08 13:06 | 49.02526 | 2.55440 | 358 ft | 8 kts | 115° |
| 2026-05-08 13:06 | 49.02503 | 2.55511 | 359 ft | 5 kts | 116° |
| 2026-05-08 13:07 | 49.02488 | 2.55551 | 360 ft | 4 kts | 122° |
| 2026-05-08 13:07 | 49.02470 | 2.55584 | 358 ft | 4 kts | 135° |
| 2026-05-08 13:07 | 49.02442 | 2.55604 | 361 ft | 7 kts | 163° |
| 2026-05-08 13:07 | 49.02360 | 2.55620 | 355 ft | 15 kts | 175° |
| 2026-05-08 13:08 | 49.02251 | 2.55631 | 355 ft | 20 kts | 175° |
| 2026-05-08 13:08 | 49.02147 | 2.55645 | 358 ft | 6 kts | 175° |
| 2026-05-08 13:08 | 49.02142 | 2.55645 | 357 ft | 0 kts | 175° |
| 2026-05-08 13:10 | 49.02137 | 2.55646 | 355 ft | 4 kts | 175° |
| 2026-05-08 13:10 | 49.02084 | 2.55626 | 360 ft | 12 kts | 215° |
| 2026-05-08 13:10 | 49.02063 | 2.55497 | 361 ft | 12 kts | 266° |
| 2026-05-08 13:11 | 49.02054 | 2.55322 | 355 ft | 21 kts | 265° |
| 2026-05-08 13:11 | 49.02044 | 2.55134 | 361 ft | 17 kts | 266° |
| 2026-05-08 13:11 | 49.02035 | 2.54972 | 356 ft | 14 kts | 261° |
| 2026-05-08 13:11 | 49.01976 | 2.54853 | 359 ft | 14 kts | 204° |
| 2026-05-08 13:12 | 49.01849 | 2.54853 | 357 ft | 21 kts | 178° |
| 2026-05-08 13:12 | 49.01725 | 2.54866 | 355 ft | 9 kts | 172° |
| 2026-05-08 13:12 | 49.01646 | 2.54881 | 355 ft | 13 kts | 176° |
| 2026-05-08 13:12 | 49.01632 | 2.54883 | 355 ft | 0 kts | 176° |
| 2026-05-08 13:13 | 49.01625 | 2.54883 | 355 ft | 5 kts | 176° |
| 2026-05-08 13:13 | 49.01569 | 2.54888 | 358 ft | 7 kts | 177° |
| 2026-05-08 13:13 | 49.01538 | 2.54891 | 355 ft | 8 kts | 177° |
| 2026-05-08 13:13 | 49.01456 | 2.54901 | 361 ft | 10 kts | 174° |
| 2026-05-08 13:14 | 49.01375 | 2.54926 | 358 ft | 16 kts | 167° |
| 2026-05-08 13:14 | 49.01311 | 2.54952 | 356 ft | 2 kts | 164° |
| 2026-05-08 13:14 | 49.01269 | 2.54970 | 357 ft | 10 kts | 164° |
| 2026-05-08 13:14 | 49.01169 | 2.55016 | 355 ft | 20 kts | 165° |
| 2026-05-08 13:15 | 49.01008 | 2.55085 | 361 ft | 28 kts | 165° |
| 2026-05-08 13:15 | 49.00848 | 2.55155 | 360 ft | 18 kts | 164° |
| 2026-05-08 13:15 | 49.00744 | 2.55198 | 362 ft | 12 kts | 165° |
| 2026-05-08 13:15 | 49.00708 | 2.55322 | 362 ft | 19 kts | 67° |
| 2026-05-08 13:16 | 49.00735 | 2.55560 | 359 ft | 27 kts | 84° |
| 2026-05-08 13:16 | 49.00752 | 2.55780 | 362 ft | 22 kts | 82° |
| 2026-05-08 13:16 | 49.00770 | 2.55958 | 357 ft | 15 kts | 81° |
| 2026-05-08 13:16 | 49.00786 | 2.56131 | 355 ft | 12 kts | 81° |
| 2026-05-08 13:17 | 49.00802 | 2.56294 | 355 ft | 14 kts | 82° |
| 2026-05-08 13:17 | 49.00778 | 2.56428 | 357 ft | 16 kts | 140° |
| 2026-05-08 13:17 | 49.00687 | 2.56453 | 355 ft | 14 kts | 184° |
| 2026-05-08 13:17 | 49.00627 | 2.56383 | 360 ft | 11 kts | 247° |
| 2026-05-08 13:18 | 49.00616 | 2.56263 | 355 ft | 12 kts | 265° |
| 2026-05-08 13:18 | 49.00608 | 2.56114 | 355 ft | 11 kts | 262° |
| 2026-05-08 13:18 | 49.00592 | 2.56034 | 359 ft | 7 kts | 234° |
| 2026-05-08 13:18 | 49.00541 | 2.56023 | 355 ft | 2 kts | 171° |
| 2026-05-08 13:19 | 49.00517 | 2.56029 | 355 ft | 0 kts | 171° |
| 2026-05-08 13:19 | 49.00514 | 2.56029 | 355 ft | 1 kts | 170° |
| 2026-05-08 13:19 | 49.00506 | 2.56032 | 355 ft | 0 kts | 170° |